Time;durP1;ratioP1;P1;durP2;ratioP2;P2;SDS_P1;SDS_P2;PMS_P1;PMS_P2;Temp;Humidity;BMP_temperature;BMP_pressure;BME280_temperature;BME280_humidity;BME280_pressure;Samples;Min_cycle;Max_cycle;Signal;HPM_P1;HPM_P2
2021/08/03 00:00:36;;;;;;;1.40;1.00;;;20.10;61.10;;;;;;4908768;29;20036;-85
2021/08/03 00:03:07;;;;;;;1.13;1.00;;;20.00;61.10;;;;;;4890486;29;20039;-85
2021/08/03 00:05:42;;;;;;;1.05;0.93;;;20.00;61.20;;;;;;4908105;29;20036;-84
2021/08/03 00:08:26;;;;;;;1.40;0.80;;;20.00;61.20;;;;;;4890160;29;20036;-85
2021/08/03 00:10:53;;;;;;;1.30;0.90;;;20.00;61.40;;;;;;4909949;29;20052;-85
2021/08/03 00:13:20;;;;;;;1.20;1.02;;;19.90;61.20;;;;;;4877041;29;20039;-85
2021/08/03 00:15:48;;;;;;;1.17;1.08;;;19.90;61.30;;;;;;4915626;29;20378;-85
2021/08/03 00:18:17;;;;;;;0.85;0.70;;;19.90;61.30;;;;;;4899573;29;20119;-85
2021/08/03 00:20:43;;;;;;;0.95;0.90;;;19.80;62.00;;;;;;4904910;29;20056;-85
2021/08/03 00:23:09;;;;;;;1.02;0.90;;;19.80;61.30;;;;;;4897448;29;20145;-84
2021/08/03 00:25:35;;;;;;;3.30;1.17;;;19.80;61.40;;;;;;4914895;29;20092;-85
2021/08/03 00:28:01;;;;;;;1.25;0.93;;;19.70;61.40;;;;;;4899432;29;20160;-85
2021/08/03 00:30:27;;;;;;;1.48;1.10;;;19.70;61.40;;;;;;4911603;29;20040;-83
2021/08/03 00:32:54;;;;;;;0.93;0.85;;;19.70;61.40;;;;;;4890580;29;20135;-86
2021/08/03 00:35:21;;;;;;;0.98;0.80;;;19.60;61.40;;;;;;4920402;29;20473;-85
2021/08/03 00:37:47;;;;;;;2.10;1.00;;;19.60;61.50;;;;;;4892343;29;20028;-85
2021/08/03 00:40:15;;;;;;;1.45;0.88;;;19.60;61.50;;;;;;4898586;29;20036;-84
2021/08/03 00:42:41;;;;;;;0.80;0.80;;;19.60;61.60;;;;;;4877086;29;20120;-85
2021/08/03 00:45:08;;;;;;;1.08;0.98;;;19.60;61.60;;;;;;4910309;29;20028;-85
2021/08/03 00:47:40;;;;;;;1.27;1.05;;;19.50;61.50;;;;;;4884180;29;20459;-86
2021/08/03 00:50:08;;;;;;;1.52;0.98;;;19.50;61.60;;;;;;4899915;29;20036;-85
2021/08/03 00:52:36;;;;;;;0.82;0.73;;;19.50;61.60;;;;;;4884319;29;20102;-85
2021/08/03 00:55:03;;;;;;;0.70;0.70;;;19.50;61.70;;;;;;4912792;29;20131;-85
2021/08/03 00:57:32;;;;;;;1.50;0.98;;;19.40;61.70;;;;;;4898284;29;20512;-84
2021/08/03 00:59:59;;;;;;;2.00;0.95;;;19.40;61.70;;;;;;4913541;29;20036;-85
2021/08/03 01:02:29;;;;;;;0.82;0.80;;;19.40;61.70;;;;;;4884630;29;20040;-85
2021/08/03 01:04:59;;;;;;;1.42;1.10;;;19.40;61.70;;;;;;4905803;29;20036;-84
2021/08/03 01:07:26;;;;;;;1.23;1.00;;;19.40;61.80;;;;;;4909528;29;20034;-85
2021/08/03 01:10:07;;;;;;;1.02;0.93;;;19.30;61.80;;;;;;4918125;29;20122;-85
2021/08/03 01:12:39;;;;;;;1.38;1.00;;;19.30;61.90;;;;;;4901675;29;20384;-85
2021/08/03 01:15:11;;;;;;;1.20;0.90;;;19.30;61.90;;;;;;4906571;29;20032;-84
2021/08/03 01:17:56;;;;;;;0.95;0.80;;;19.20;61.90;;;;;;4913973;29;20063;-85
2021/08/03 01:20:37;;;;;;;1.50;0.90;;;19.20;61.90;;;;;;4913950;29;20071;-85
2021/08/03 01:23:25;;;;;;;0.85;0.80;;;19.20;61.90;;;;;;4913381;29;20036;-85
2021/08/03 01:26:08;;;;;;;1.35;0.90;;;19.10;62.10;;;;;;4904284;29;20037;-84
2021/08/03 01:28:44;;;;;;;1.15;0.90;;;19.10;62.10;;;;;;4909573;29;20118;-85
2021/08/03 01:31:22;;;;;;;0.90;0.90;;;19.10;62.10;;;;;;4915844;29;20028;-85
2021/08/03 01:33:56;;;;;;;1.00;0.90;;;19.00;62.20;;;;;;4913697;29;20016;-84
2021/08/03 01:36:27;;;;;;;1.08;0.82;;;19.00;62.10;;;;;;4915643;29;20053;-85
2021/08/03 01:38:55;;;;;;;1.17;0.80;;;19.00;62.20;;;;;;4876282;29;20032;-83
2021/08/03 01:41:25;;;;;;;1.85;1.20;;;19.00;62.20;;;;;;4900155;29;20063;-85
2021/08/03 01:43:52;;;;;;;1.23;0.93;;;19.00;62.30;;;;;;4910080;29;20045;-85
2021/08/03 01:46:20;;;;;;;1.15;1.00;;;18.90;62.20;;;;;;4910659;29;20099;-85
2021/08/03 01:48:48;;;;;;;1.13;0.82;;;18.90;62.30;;;;;;4899839;29;20043;-84
2021/08/03 01:51:16;;;;;;;0.80;0.80;;;18.90;62.30;;;;;;4915835;29;20020;-85
2021/08/03 01:53:44;;;;;;;2.13;0.93;;;18.90;62.30;;;;;;4905787;29;20074;-85
2021/08/03 01:56:13;;;;;;;1.23;0.90;;;18.90;62.40;;;;;;4888922;29;20097;-84
2021/08/03 01:58:40;;;;;;;1.15;0.90;;;18.90;62.40;;;;;;4890703;29;20036;-85
2021/08/03 02:01:20;;;;;;;1.20;1.05;;;18.80;62.40;;;;;;4896343;29;20466;-84
2021/08/03 02:03:48;;;;;;;1.05;0.90;;;18.80;62.40;;;;;;4914499;29;20024;-85
2021/08/03 02:06:16;;;;;;;1.10;1.00;;;18.80;62.40;;;;;;4891126;29;20096;-84
2021/08/03 02:08:46;;;;;;;0.95;0.82;;;18.80;62.50;;;;;;4914545;29;20040;-85
2021/08/03 02:11:25;;;;;;;1.02;0.90;;;18.80;62.50;;;;;;4912621;29;20045;-85
2021/08/03 02:13:54;;;;;;;0.80;0.80;;;18.70;62.50;;;;;;4909738;29;20060;-85
2021/08/03 02:16:33;;;;;;;1.08;0.98;;;18.70;62.50;;;;;;4913530;29;20040;-84
2021/08/03 02:19:04;;;;;;;1.10;1.00;;;18.70;62.50;;;;;;4897006;29;20060;-78
2021/08/03 02:21:43;;;;;;;1.00;0.90;;;18.70;62.70;;;;;;4931760;29;20095;-79
2021/08/03 02:24:10;;;;;;;0.82;0.82;;;18.70;62.70;;;;;;4931851;29;20036;-78
2021/08/03 02:26:36;;;;;;;1.20;1.10;;;18.60;62.60;;;;;;4899916;29;20083;-78
2021/08/03 02:29:03;;;;;;;1.02;0.90;;;18.60;62.70;;;;;;4931179;29;20051;-78
2021/08/03 02:31:59;;;;;;;1.85;1.00;;;18.60;62.70;;;;;;4916608;29;20469;-79
2021/08/03 02:34:31;;;;;;;0.90;0.88;;;18.60;62.80;;;;;;4916838;29;20044;-78
2021/08/03 02:37:04;;;;;;;1.30;1.08;;;18.50;62.70;;;;;;4919590;29;20490;-78
2021/08/03 02:39:34;;;;;;;0.80;0.80;;;18.50;62.70;;;;;;4903458;29;20036;-78
2021/08/03 02:42:02;;;;;;;0.68;0.68;;;18.50;62.70;;;;;;4903520;29;20028;-78
2021/08/03 02:44:30;;;;;;;1.00;0.82;;;18.50;62.80;;;;;;4903016;29;20034;-78
2021/08/03 02:46:58;;;;;;;0.95;0.82;;;18.50;62.90;;;;;;4902548;29;20040;-78
2021/08/03 02:52:09;;;;;;;;;;;18.50;62.90;;;;;;4919298;29;20043;-79
2021/08/03 02:54:38;;;;;;;0.73;0.70;;;18.50;62.80;;;;;;4918411;29;20287;-80
2021/08/03 02:57:11;;;;;;;0.70;0.70;;;18.40;62.80;;;;;;4918848;29;20040;-79
2021/08/03 02:59:47;;;;;;;0.85;0.85;;;18.40;63.00;;;;;;4918884;29;20059;-78
2021/08/03 03:02:15;;;;;;;0.95;0.82;;;18.40;63.10;;;;;;4918754;29;20032;-78
2021/08/03 03:04:58;;;;;;;0.80;0.80;;;18.30;63.00;;;;;;4919260;29;20358;-78
2021/08/03 03:07:32;;;;;;;1.17;0.93;;;18.30;63.10;;;;;;4903029;29;20036;-78
2021/08/03 03:10:01;;;;;;;0.90;0.90;;;18.30;63.10;;;;;;4918521;29;20037;-78
2021/08/03 03:12:30;;;;;;;1.05;0.88;;;18.30;63.10;;;;;;4917822;29;20103;-78
2021/08/03 03:14:59;;;;;;;1.00;0.90;;;18.30;63.20;;;;;;4902622;29;20039;-78
2021/08/03 03:17:26;;;;;;;1.08;0.98;;;18.20;63.20;;;;;;4902407;29;20054;-80
2021/08/03 03:19:56;;;;;;;1.05;0.90;;;18.20;63.20;;;;;;4918423;29;20040;-78
2021/08/03 03:22:24;;;;;;;1.38;0.90;;;18.20;63.30;;;;;;4902558;29;20034;-78
2021/08/03 03:24:51;;;;;;;1.05;0.95;;;18.20;63.30;;;;;;4887142;29;20042;-79
2021/08/03 03:27:19;;;;;;;0.98;0.80;;;18.30;63.40;;;;;;4918437;29;20125;-78
2021/08/03 03:29:47;;;;;;;0.80;0.80;;;18.20;63.40;;;;;;4933839;29;20032;-78
2021/08/03 03:32:13;;;;;;;0.90;0.90;;;18.20;64.00;;;;;;4903576;29;20043;-79
2021/08/03 03:34:41;;;;;;;0.82;0.82;;;18.20;63.40;;;;;;4904476;29;20036;-78
2021/08/03 03:37:07;;;;;;;1.00;0.90;;;18.10;63.40;;;;;;4904645;29;20032;-78
2021/08/03 03:39:35;;;;;;;1.00;0.90;;;18.20;63.50;;;;;;4919642;29;20150;-79
2021/08/03 03:42:04;;;;;;;1.20;1.00;;;18.10;63.50;;;;;;4917804;29;20024;-78
2021/08/03 03:44:31;;;;;;;0.88;0.80;;;18.10;63.50;;;;;;4917851;29;20028;-79
2021/08/03 03:47:04;;;;;;;0.90;0.90;;;18.10;63.60;;;;;;4918971;29;20054;-79
2021/08/03 03:49:45;;;;;;;1.00;0.90;;;18.10;63.60;;;;;;4905108;29;20063;-78
2021/08/03 03:52:11;;;;;;;1.02;0.90;;;18.10;63.70;;;;;;4920014;29;20036;-79
2021/08/03 03:54:40;;;;;;;1.10;1.00;;;18.10;63.60;;;;;;4905279;29;20028;-77
2021/08/03 03:57:10;;;;;;;1.40;0.95;;;18.10;63.70;;;;;;4920247;29;20032;-78
2021/08/03 03:59:38;;;;;;;0.82;0.82;;;18.00;63.70;;;;;;4904700;29;20058;-78
2021/08/03 04:02:08;;;;;;;1.27;1.08;;;18.00;63.70;;;;;;4902603;29;20044;-78
2021/08/03 04:04:37;;;;;;;1.27;1.08;;;18.00;63.70;;;;;;4918403;29;20484;-79
2021/08/03 04:07:03;;;;;;;2.10;1.42;;;18.00;63.70;;;;;;4933227;29;20039;-78
2021/08/03 04:09:30;;;;;;;1.75;1.20;;;18.00;63.70;;;;;;4901885;29;20039;-78
2021/08/03 04:12:12;;;;;;;1.98;1.35;;;18.00;63.80;;;;;;4917304;29;20055;-78
2021/08/03 04:14:43;;;;;;;2.22;1.42;;;18.00;63.80;;;;;;4917619;29;20048;-78
2021/08/03 04:17:11;;;;;;;3.03;1.63;;;18.00;63.90;;;;;;4901935;29;20377;-78
2021/08/03 04:19:40;;;;;;;1.38;1.20;;;17.90;63.80;;;;;;4901995;29;20037;-78
2021/08/03 04:22:06;;;;;;;1.63;1.23;;;17.90;63.90;;;;;;4918270;29;20389;-79
2021/08/03 04:24:32;;;;;;;2.33;1.30;;;18.00;63.90;;;;;;4917261;29;20120;-78
2021/08/03 04:26:57;;;;;;;1.23;1.13;;;17.90;63.90;;;;;;4918689;29;20437;-78
2021/08/03 04:29:23;;;;;;;1.30;1.00;;;17.90;64.60;;;;;;4917339;29;20107;-79
2021/08/03 04:31:49;;;;;;;1.50;1.30;;;17.90;63.90;;;;;;4917001;29;20071;-78
2021/08/03 04:34:14;;;;;;;1.20;1.10;;;17.90;63.90;;;;;;4916847;29;20059;-79
2021/08/03 04:36:40;;;;;;;1.63;1.27;;;17.90;64.00;;;;;;4901765;29;20035;-78
2021/08/03 04:39:10;;;;;;;1.45;1.20;;;17.80;64.00;;;;;;4917037;29;20044;-78
2021/08/03 04:41:39;;;;;;;1.75;1.20;;;17.90;64.00;;;;;;4901859;29;20445;-78
2021/08/03 04:44:05;;;;;;;1.88;1.20;;;17.80;64.00;;;;;;4901147;29;20100;-77
2021/08/03 04:46:31;;;;;;;1.98;1.27;;;17.80;64.00;;;;;;4916635;29;20083;-78
2021/08/03 04:48:57;;;;;;;2.08;1.38;;;17.80;64.00;;;;;;4916834;29;20024;-77
2021/08/03 04:51:23;;;;;;;2.85;1.40;;;17.80;64.10;;;;;;4901152;29;20092;-78
2021/08/03 04:53:48;;;;;;;1.95;1.17;;;17.80;64.10;;;;;;4900918;29;20381;-78
2021/08/03 04:56:14;;;;;;;1.08;1.08;;;17.80;64.10;;;;;;4900148;29;20071;-77
2021/08/03 04:58:41;;;;;;;0.90;0.90;;;17.80;64.10;;;;;;4901190;29;20035;-79
2021/08/03 05:01:07;;;;;;;2.10;1.10;;;17.80;64.10;;;;;;4917240;29;20091;-78
2021/08/03 05:03:33;;;;;;;1.80;1.20;;;17.80;64.20;;;;;;4900661;29;20436;-77
2021/08/03 05:05:59;;;;;;;1.10;1.00;;;17.80;64.20;;;;;;4900623;29;20036;-78
2021/08/03 05:08:25;;;;;;;1.23;1.13;;;17.80;64.30;;;;;;4901353;29;20039;-78
2021/08/03 05:10:51;;;;;;;1.85;1.00;;;17.80;64.30;;;;;;4916092;29;20056;-77
2021/08/03 05:13:16;;;;;;;1.10;1.00;;;17.80;64.30;;;;;;4916827;29;20389;-78
2021/08/03 05:15:42;;;;;;;1.63;1.20;;;17.80;64.30;;;;;;4916279;29;20123;-78
2021/08/03 05:18:08;;;;;;;1.55;1.10;;;17.70;64.30;;;;;;4916174;29;20032;-77
2021/08/03 05:20:34;;;;;;;1.13;1.02;;;17.80;64.40;;;;;;4900334;29;20397;-78
2021/08/03 05:23:00;;;;;;;1.08;1.00;;;17.80;64.40;;;;;;4916144;29;20032;-78
2021/08/03 05:25:27;;;;;;;1.75;0.90;;;17.70;64.30;;;;;;4900492;29;20090;-78
2021/08/03 05:27:53;;;;;;;1.17;1.08;;;17.70;64.30;;;;;;4900288;29;20043;-78
2021/08/03 05:30:19;;;;;;;1.10;1.02;;;17.70;64.40;;;;;;4916174;29;20043;-79
2021/08/03 05:32:44;;;;;;;1.00;0.90;;;17.80;64.50;;;;;;4916082;29;20036;-78
2021/08/03 05:35:10;;;;;;;1.08;1.00;;;17.80;64.60;;;;;;4916048;29;20502;-78
2021/08/03 05:37:37;;;;;;;1.15;1.02;;;17.80;64.60;;;;;;4916113;29;20417;-77
2021/08/03 05:40:08;;;;;;;1.02;1.00;;;17.80;64.60;;;;;;4916709;29;20079;-77
2021/08/03 05:42:35;;;;;;;1.35;1.13;;;17.80;64.60;;;;;;4916230;29;20038;-77
2021/08/03 05:45:01;;;;;;;1.00;0.90;;;17.80;64.60;;;;;;4900233;29;20462;-78
2021/08/03 05:47:27;;;;;;;1.60;1.20;;;17.80;65.30;;;;;;4916631;29;20036;-77
2021/08/03 05:49:52;;;;;;;1.35;1.17;;;17.80;64.70;;;;;;4900271;29;20481;-78
2021/08/03 05:52:18;;;;;;;1.10;1.00;;;17.80;64.70;;;;;;4915854;29;20536;-77
2021/08/03 05:54:44;;;;;;;1.08;0.90;;;17.80;64.70;;;;;;4900647;29;20075;-77
2021/08/03 05:57:09;;;;;;;1.30;1.02;;;17.80;64.80;;;;;;4900117;29;20044;-79
2021/08/03 05:59:35;;;;;;;1.02;1.00;;;17.80;64.80;;;;;;4899790;29;20028;-78
2021/08/03 06:02:01;;;;;;;1.90;1.23;;;17.80;64.80;;;;;;4899815;29;20059;-78
2021/08/03 06:04:27;;;;;;;1.10;1.10;;;17.80;64.80;;;;;;4916156;29;20119;-79
2021/08/03 06:06:55;;;;;;;1.30;1.20;;;17.80;64.80;;;;;;4917736;29;20032;-77
2021/08/03 06:09:23;;;;;;;1.48;1.10;;;17.80;64.80;;;;;;4919586;29;20024;-78
2021/08/03 06:11:51;;;;;;;1.30;1.20;;;17.80;64.80;;;;;;4920928;29;20052;-78
2021/08/03 06:14:40;;;;;;;1.40;1.20;;;17.80;64.80;;;;;;4919290;29;20528;-78
2021/08/03 06:17:08;;;;;;;1.42;1.13;;;17.80;64.90;;;;;;4903484;29;20484;-77
2021/08/03 06:19:48;;;;;;;1.30;1.10;;;17.80;64.80;;;;;;4920211;29;20032;-78
2021/08/03 06:22:15;;;;;;;1.50;1.08;;;17.80;64.90;;;;;;4903237;29;20039;-78
2021/08/03 06:24:42;;;;;;;1.42;1.10;;;17.80;64.90;;;;;;4918890;29;20075;-79
2021/08/03 06:27:13;;;;;;;1.30;1.20;;;17.80;64.90;;;;;;4934973;29;20032;-77
2021/08/03 06:29:39;;;;;;;1.35;1.10;;;17.80;64.90;;;;;;4934984;29;20040;-78
2021/08/03 06:32:06;;;;;;;1.58;1.05;;;17.80;64.90;;;;;;4919363;29;20040;-78
2021/08/03 06:34:43;;;;;;;3.80;1.30;;;17.90;65.00;;;;;;4919025;29;20070;-78
2021/08/03 06:37:10;;;;;;;1.98;1.40;;;17.90;65.10;;;;;;4919047;29;20044;-78
2021/08/03 06:39:38;;;;;;;1.38;1.27;;;17.80;65.00;;;;;;4903321;29;20128;-78
2021/08/03 06:42:34;;;;;;;1.63;1.30;;;17.90;65.10;;;;;;4903102;29;20028;-79
2021/08/03 06:45:11;;;;;;;1.80;1.30;;;17.90;65.20;;;;;;4918967;29;20115;-78
2021/08/03 06:48:05;;;;;;;2.08;1.27;;;17.90;65.10;;;;;;4919546;29;20028;-77
2021/08/03 06:50:34;;;;;;;1.88;1.27;;;17.90;65.20;;;;;;4902742;29;20036;-76
2021/08/03 06:53:01;;;;;;;2.42;1.50;;;17.90;65.10;;;;;;4918714;29;20066;-78
2021/08/03 06:55:29;;;;;;;2.47;1.50;;;17.90;65.10;;;;;;4903192;29;20129;-78
2021/08/03 06:57:59;;;;;;;2.05;1.48;;;17.90;65.80;;;;;;4919802;29;20032;-80
2021/08/03 07:00:26;;;;;;;1.88;1.30;;;17.90;65.10;;;;;;4918579;29;20036;-77
2021/08/03 07:02:52;;;;;;;1.58;1.20;;;17.90;65.10;;;;;;4918742;29;20036;-78
2021/08/03 07:05:23;;;;;;;2.17;1.40;;;17.90;65.10;;;;;;4918549;29;20119;-79
2021/08/03 07:08:00;;;;;;;2.65;1.80;;;17.90;65.20;;;;;;4903823;29;20352;-79
2021/08/03 07:10:27;;;;;;;1.40;1.30;;;17.90;65.20;;;;;;4934160;29;20484;-79
2021/08/03 07:12:54;;;;;;;1.88;1.40;;;18.00;65.20;;;;;;4918874;29;20123;-78
2021/08/03 07:15:21;;;;;;;1.95;1.35;;;18.00;65.20;;;;;;4902696;29;20036;-78
2021/08/03 07:17:50;;;;;;;1.83;1.52;;;18.00;65.30;;;;;;4901901;29;20036;-78
2021/08/03 07:20:16;;;;;;;1.55;1.35;;;18.00;65.30;;;;;;4933920;29;20042;-79
2021/08/03 07:22:44;;;;;;;1.90;1.58;;;18.00;65.20;;;;;;4918107;29;20032;-78
2021/08/03 07:25:10;;;;;;;2.03;1.58;;;18.00;65.20;;;;;;4902336;29;20060;-79
2021/08/03 07:27:37;;;;;;;2.05;1.58;;;18.10;65.30;;;;;;4917971;29;20047;-79
2021/08/03 07:30:04;;;;;;;2.92;1.83;;;18.10;65.30;;;;;;4933830;29;20064;-79
2021/08/03 07:32:36;;;;;;;1.88;1.60;;;18.10;65.30;;;;;;4919352;29;20477;-78
2021/08/03 07:35:04;;;;;;;1.70;1.60;;;18.10;65.30;;;;;;4919308;29;20033;-80
2021/08/03 07:37:31;;;;;;;2.15;1.80;;;18.10;65.30;;;;;;4919066;29;20032;-77
2021/08/03 07:39:57;;;;;;;2.85;1.77;;;18.20;65.30;;;;;;4902817;29;20068;-77
2021/08/03 07:42:23;;;;;;;2.78;1.85;;;18.10;65.20;;;;;;4918466;29;20449;-77
2021/08/03 07:44:49;;;;;;;3.03;2.15;;;18.20;65.30;;;;;;4918961;29;20039;-77
2021/08/03 07:47:14;;;;;;;3.50;2.22;;;18.20;65.40;;;;;;4902003;29;20438;-77
2021/08/03 07:49:40;;;;;;;2.97;2.17;;;18.20;65.30;;;;;;4902080;29;20123;-77
2021/08/03 07:52:09;;;;;;;2.88;2.10;;;18.20;65.30;;;;;;4901608;29;20481;-77
2021/08/03 07:54:35;;;;;;;3.22;2.10;;;18.30;65.40;;;;;;4917619;29;20032;-77
2021/08/03 07:57:01;;;;;;;3.20;2.30;;;18.30;65.30;;;;;;4901868;29;20035;-79
2021/08/03 07:59:27;;;;;;;3.30;2.30;;;18.30;65.30;;;;;;4918701;29;20117;-77
2021/08/03 08:01:52;;;;;;;3.22;2.15;;;18.40;65.30;;;;;;4901736;29;20129;-78
2021/08/03 08:04:18;;;;;;;4.07;3.00;;;18.40;65.30;;;;;;4917449;29;20477;-77
2021/08/03 08:06:44;;;;;;;3.92;2.75;;;18.40;65.30;;;;;;4918549;29;20031;-78
2021/08/03 08:09:09;;;;;;;4.68;3.13;;;18.50;65.30;;;;;;4918584;29;20080;-78
2021/08/03 08:11:35;;;;;;;3.90;2.78;;;18.50;65.30;;;;;;4901122;29;20044;-77
2021/08/03 08:14:01;;;;;;;4.13;3.20;;;18.60;65.30;;;;;;4917569;29;20032;-77
2021/08/03 08:16:27;;;;;;;4.25;2.95;;;18.60;65.30;;;;;;4917189;29;20039;-77
2021/08/03 08:18:52;;;;;;;4.13;3.03;;;18.60;65.20;;;;;;4917087;29;20044;-77
2021/08/03 08:21:18;;;;;;;4.75;3.33;;;18.70;65.20;;;;;;4901411;29;20043;-78
2021/08/03 08:23:44;;;;;;;4.18;3.22;;;18.70;65.20;;;;;;4918284;29;20123;-77
2021/08/03 08:26:10;;;;;;;5.55;3.72;;;18.80;65.20;;;;;;4917134;29;20472;-77
2021/08/03 08:28:35;;;;;;;5.25;3.97;;;18.80;65.10;;;;;;4901381;29;20114;-77
2021/08/03 08:31:01;;;;;;;4.95;3.58;;;18.80;65.10;;;;;;4916924;29;20036;-77
2021/08/03 08:33:27;;;;;;;4.32;3.08;;;18.90;65.10;;;;;;4917426;29;20115;-77
2021/08/03 08:35:53;;;;;;;4.82;3.10;;;18.90;65.10;;;;;;4901362;29;20067;-78
2021/08/03 08:38:18;;;;;;;4.25;3.08;;;19.00;65.10;;;;;;4901323;29;20099;-77
2021/08/03 08:40:44;;;;;;;5.10;3.50;;;19.00;65.10;;;;;;4918488;29;20103;-77
2021/08/03 08:43:15;;;;;;;4.43;3.10;;;19.00;65.00;;;;;;4917108;29;20389;-77
2021/08/03 08:45:42;;;;;;;4.70;3.28;;;19.10;65.10;;;;;;4932815;29;20024;-77
2021/08/03 08:48:10;;;;;;;5.20;3.40;;;19.10;64.90;;;;;;4900998;29;20028;-77
2021/08/03 08:50:36;;;;;;;4.72;3.08;;;19.10;64.90;;;;;;4916546;29;20036;-77
2021/08/03 08:53:02;;;;;;;4.95;3.30;;;19.10;64.90;;;;;;4917795;29;20482;-77
2021/08/03 08:55:28;;;;;;;4.47;3.00;;;19.20;64.90;;;;;;4900874;29;20087;-78
2021/08/03 08:57:54;;;;;;;5.15;3.28;;;19.20;64.80;;;;;;4901117;29;20488;-78
2021/08/03 09:00:22;;;;;;;5.03;3.53;;;19.30;64.80;;;;;;4916455;29;20095;-78
2021/08/03 09:02:53;;;;;;;3.35;2.38;;;19.30;64.80;;;;;;4916280;29;20115;-77
2021/08/03 09:05:32;;;;;;;3.95;2.90;;;19.30;64.70;;;;;;4901524;29;20044;-78
2021/08/03 09:08:00;;;;;;;4.30;2.90;;;19.30;64.80;;;;;;4916120;29;20047;-77
2021/08/03 09:10:50;;;;;;;4.20;3.05;;;19.40;64.60;;;;;;4901096;29;20350;-78
2021/08/03 09:13:18;;;;;;;4.97;3.20;;;19.40;64.70;;;;;;4885767;29;20056;-79
2021/08/03 09:15:46;;;;;;;4.68;2.78;;;19.50;64.60;;;;;;4901263;29;20036;-76
2021/08/03 09:18:17;;;;;;;3.92;2.85;;;19.50;64.60;;;;;;4932107;29;20047;-75
2021/08/03 09:20:45;;;;;;;4.95;3.17;;;19.50;64.60;;;;;;4901260;29;20040;-77
2021/08/03 09:23:11;;;;;;;4.25;3.17;;;19.50;64.50;;;;;;4916266;29;20088;-79
2021/08/03 09:25:38;;;;;;;4.63;3.10;;;19.60;64.50;;;;;;4900428;29;20036;-78
2021/08/03 09:28:08;;;;;;;4.72;3.40;;;19.60;64.50;;;;;;4900621;29;20124;-78
2021/08/03 09:30:36;;;;;;;3.67;2.83;;;19.70;64.50;;;;;;4900700;29;20451;-78
2021/08/03 09:33:04;;;;;;;3.97;2.90;;;19.70;64.40;;;;;;4900652;29;20063;-79
2021/08/03 09:35:30;;;;;;;5.10;3.20;;;19.80;64.40;;;;;;4915728;29;20032;-79
2021/08/03 09:37:57;;;;;;;4.82;3.45;;;19.80;64.40;;;;;;4917367;29;20132;-78
2021/08/03 09:40:29;;;;;;;4.88;3.60;;;19.90;64.40;;;;;;4900514;29;20404;-78
2021/08/03 09:43:04;;;;;;;4.05;3.15;;;19.80;64.30;;;;;;4920158;29;20024;-79
2021/08/03 09:45:33;;;;;;;4.53;3.20;;;19.90;64.40;;;;;;4919989;29;20036;-78
2021/08/03 09:48:25;;;;;;;3.45;2.83;;;20.00;64.30;;;;;;4921648;29;20032;-79
2021/08/03 09:51:07;;;;;;;5.35;3.17;;;20.00;64.30;;;;;;4915535;29;20036;-78
2021/08/03 09:53:49;;;;;;;4.25;3.10;;;20.10;64.10;;;;;;4904239;29;20362;-79
2021/08/03 09:56:17;;;;;;;4.05;3.15;;;20.10;64.20;;;;;;4920349;29;20036;-78
2021/08/03 09:58:59;;;;;;;3.88;2.70;;;20.20;64.20;;;;;;4903477;29;20046;-79
2021/08/03 10:01:31;;;;;;;4.05;3.13;;;20.20;64.20;;;;;;4904013;29;20495;-78
2021/08/03 10:04:06;;;;;;;3.97;3.13;;;20.20;64.10;;;;;;4919579;29;20020;-78
2021/08/03 10:06:33;;;;;;;5.25;3.67;;;20.30;64.20;;;;;;4920224;29;20032;-78
2021/08/03 10:08:59;;;;;;;6.07;3.40;;;20.30;64.00;;;;;;4903820;29;20148;-78
2021/08/03 10:11:26;;;;;;;5.38;3.45;;;20.30;64.00;;;;;;4919343;29;20071;-78
2021/08/03 10:13:53;;;;;;;5.03;3.65;;;20.40;64.00;;;;;;4919995;29;20055;-78
2021/08/03 10:16:20;;;;;;;4.28;3.30;;;20.40;64.00;;;;;;4903735;29;20087;-79
2021/08/03 10:18:48;;;;;;;5.20;4.15;;;20.50;64.00;;;;;;4920369;29;20474;-78
2021/08/03 10:21:35;;;;;;;5.00;3.70;;;20.50;64.00;;;;;;4935162;29;20043;-79
2021/08/03 10:24:17;;;;;;;5.55;3.90;;;20.60;64.10;;;;;;4903794;29;20028;-78
2021/08/03 10:27:11;;;;;;;4.80;3.28;;;20.60;64.10;;;;;;4935148;29;20583;-79
2021/08/03 10:29:45;;;;;;;4.73;3.63;;;20.70;64.10;;;;;;4919305;29;20433;-78
2021/08/03 10:32:37;;;;;;;5.22;3.53;;;20.70;63.90;;;;;;4918770;29;20032;-78
2021/08/03 10:35:04;;;;;;;4.88;3.55;;;20.70;64.00;;;;;;4920308;29;20043;-79
2021/08/03 10:37:54;;;;;;;5.43;3.95;;;20.80;63.90;;;;;;4920142;29;20060;-79
2021/08/03 10:40:20;;;;;;;4.15;3.30;;;20.80;64.00;;;;;;4903443;29;20488;-80
2021/08/03 10:43:16;;;;;;;5.82;4.18;;;20.80;63.80;;;;;;4903224;29;20032;-78
2021/08/03 10:45:43;;;;;;;5.45;3.90;;;20.90;63.90;;;;;;4903024;29;20032;-77
2021/08/03 10:48:09;;;;;;;8.00;5.38;;;20.90;63.70;;;;;;4902770;29;20040;-78
2021/08/03 10:50:35;;;;;;;6.63;4.93;;;20.90;63.60;;;;;;4918729;29;20040;-77
2021/08/03 10:53:03;;;;;;;8.23;5.82;;;21.00;63.60;;;;;;4917736;29;20024;-81
2021/08/03 10:55:44;;;;;;;6.40;5.35;;;21.00;63.60;;;;;;4903437;29;20540;-82
2021/08/03 10:58:09;;;;;;;6.70;5.55;;;21.10;63.60;;;;;;4934646;29;20385;-80
2021/08/03 11:00:42;;;;;;;6.60;5.20;;;21.10;63.40;;;;;;4918530;29;20028;-79
2021/08/03 11:03:30;;;;;;;7.38;6.07;;;21.20;63.40;;;;;;4918645;29;20032;-80
2021/08/03 11:06:16;;;;;;;6.50;5.32;;;21.20;63.40;;;;;;4918766;29;20028;-79
2021/08/03 11:08:47;;;;;;;7.78;6.13;;;21.20;63.30;;;;;;4924001;29;20059;-79
2021/08/03 11:11:27;;;;;;;6.90;5.13;;;21.30;63.20;;;;;;4919277;29;20103;-78
2021/08/03 11:13:54;;;;;;;7.10;5.55;;;21.40;63.30;;;;;;4918425;29;20044;-79
2021/08/03 11:16:20;;;;;;;7.00;5.45;;;21.40;63.10;;;;;;4918260;29;20362;-77
2021/08/03 11:18:48;;;;;;;6.57;5.88;;;21.40;63.10;;;;;;4919357;29;20088;-79
2021/08/03 11:21:21;;;;;;;6.35;5.30;;;21.50;63.10;;;;;;4902536;29;20091;-77
2021/08/03 11:24:14;;;;;;;6.60;5.72;;;21.50;63.00;;;;;;4903013;29;20060;-76
2021/08/03 11:26:53;;;;;;;6.25;5.10;;;21.50;63.00;;;;;;4918900;29;20028;-77
2021/08/03 11:29:21;;;;;;;6.47;5.68;;;21.60;62.90;;;;;;4918127;29;20039;-77
2021/08/03 11:31:58;;;;;;;6.93;5.60;;;21.60;62.80;;;;;;4917691;29;20032;-78
2021/08/03 11:34:31;;;;;;;6.85;5.93;;;21.60;62.80;;;;;;4918013;29;20043;-78
2021/08/03 11:37:01;;;;;;;7.47;6.07;;;21.70;62.70;;;;;;4917669;29;20028;-78
2021/08/03 11:39:33;;;;;;;7.68;6.50;;;21.70;62.60;;;;;;4918671;29;20028;-78
2021/08/03 11:41:59;;;;;;;8.52;6.82;;;21.80;62.60;;;;;;4919149;29;20032;-78
2021/08/03 11:44:25;;;;;;;7.70;6.40;;;21.80;62.50;;;;;;4917937;29;20032;-77
2021/08/03 11:47:09;;;;;;;8.18;6.70;;;21.80;62.40;;;;;;4902228;29;20472;-77
2021/08/03 11:49:38;;;;;;;6.95;5.93;;;21.80;62.40;;;;;;4917980;29;20032;-77
2021/08/03 11:52:11;;;;;;;7.55;6.43;;;21.90;62.40;;;;;;4901870;29;20469;-77
2021/08/03 11:54:38;;;;;;;7.32;6.40;;;21.90;63.00;;;;;;4918359;29;20475;-77
2021/08/03 11:57:30;;;;;;;7.45;6.65;;;22.00;63.00;;;;;;4917779;29;20087;-78
2021/08/03 12:00:00;;;;;;;7.05;6.20;;;21.90;62.30;;;;;;4933637;29;20072;-78
2021/08/03 12:02:27;;;;;;;7.55;6.55;;;22.00;62.20;;;;;;4901706;29;20544;-77
2021/08/03 12:05:12;;;;;;;7.15;6.43;;;22.00;62.10;;;;;;4917100;29;20123;-77
2021/08/03 12:07:40;;;;;;;7.32;6.28;;;22.10;62.30;;;;;;4917385;29;20544;-77
2021/08/03 12:10:07;;;;;;;8.18;6.72;;;22.10;62.10;;;;;;4918531;29;20044;-77
2021/08/03 12:12:34;;;;;;;8.57;6.65;;;22.10;62.10;;;;;;4901251;29;20473;-77
2021/08/03 12:15:06;;;;;;;8.00;6.60;;;22.10;62.10;;;;;;4918716;29;20374;-77
2021/08/03 12:17:33;;;;;;;8.38;6.57;;;22.10;62.10;;;;;;4917069;29;20036;-76
2021/08/03 12:20:03;;;;;;;8.43;7.03;;;22.10;62.00;;;;;;4917096;29;20083;-76
2021/08/03 12:22:31;;;;;;;7.32;6.40;;;22.10;62.00;;;;;;4901587;29;20036;-77
2021/08/03 12:24:59;;;;;;;7.05;6.20;;;22.10;61.90;;;;;;4918796;29;20036;-77
2021/08/03 12:27:24;;;;;;;7.93;7.13;;;22.20;62.00;;;;;;4901392;29;20040;-77
2021/08/03 12:29:50;;;;;;;7.28;6.30;;;22.10;61.90;;;;;;4917083;29;20479;-77
2021/08/03 12:32:39;;;;;;;8.23;6.68;;;22.20;61.90;;;;;;4916946;29;20028;-77
2021/08/03 12:35:13;;;;;;;7.68;6.32;;;22.20;62.00;;;;;;4916987;29;20068;-78
2021/08/03 12:37:39;;;;;;;7.22;6.25;;;22.20;61.90;;;;;;4901890;29;20114;-77
2021/08/03 12:40:25;;;;;;;7.53;6.72;;;22.20;61.80;;;;;;4917136;29;20446;-77
2021/08/03 12:42:53;;;;;;;7.15;5.88;;;22.30;61.90;;;;;;4918021;29;20127;-77
2021/08/03 12:45:20;;;;;;;6.75;6.05;;;22.20;61.80;;;;;;4917341;29;20056;-77
2021/08/03 12:47:54;;;;;;;8.35;7.38;;;22.20;61.80;;;;;;4917333;29;20036;-77
2021/08/03 12:50:22;;;;;;;7.43;6.53;;;22.20;61.80;;;;;;4916707;29;20088;-78
2021/08/03 12:52:57;;;;;;;7.55;6.75;;;22.30;61.80;;;;;;4916621;29;20537;-78
2021/08/03 12:55:55;;;;;;;7.85;7.05;;;22.30;61.80;;;;;;4932501;29;20032;-78
2021/08/03 12:58:40;;;;;;;7.28;6.47;;;22.30;61.80;;;;;;4916155;29;20032;-77
2021/08/03 13:01:18;;;;;;;6.85;6.05;;;22.30;61.80;;;;;;4900694;29;20111;-79
2021/08/03 13:03:48;;;;;;;7.35;6.53;;;22.30;61.70;;;;;;4917141;29;20095;-77
2021/08/03 13:06:15;;;;;;;8.32;6.68;;;22.30;61.60;;;;;;4916162;29;20038;-77